Time;durP1;ratioP1;P1;durP2;ratioP2;P2;SDS_P1;SDS_P2;PMS_P1;PMS_P2;Temp;Humidity;BMP_temperature;BMP_pressure;BME280_temperature;BME280_humidity;BME280_pressure;Samples;Min_cycle;Max_cycle;Signal;HPM_P1;HPM_P2
2021/06/12 00:01:12;;;;;;;0.00;0.00;;;;;;;21.89;63.44;101813.34;5076724;28;20064;-63
2021/06/12 00:03:38;;;;;;;0.00;0.00;;;;;;;21.88;63.53;101815.19;5075984;28;20109;-63
2021/06/12 00:06:05;;;;;;;0.00;0.00;;;;;;;21.86;63.54;101813.69;5075296;28;20066;-63
2021/06/12 00:08:30;;;;;;;0.00;0.00;;;;;;;21.91;63.45;101819.34;5076057;28;20036;-63
2021/06/12 00:10:56;;;;;;;0.00;0.00;;;;;;;21.89;63.44;101826.63;5077096;28;20028;-63
2021/06/12 00:13:22;;;;;;;0.00;0.00;;;;;;;21.90;63.49;101812.34;5079281;28;20062;-63
2021/06/12 00:15:47;;;;;;;0.00;0.00;;;;;;;21.87;63.53;101799.44;5072832;28;20082;-63
2021/06/12 00:18:13;;;;;;;0.00;0.00;;;;;;;21.93;63.45;101804.91;5079080;28;20046;-63
2021/06/12 00:20:39;;;;;;;0.05;0.05;;;;;;;21.87;63.34;101794.97;5076143;28;20035;-63
2021/06/12 00:23:05;;;;;;;0.05;0.05;;;;;;;21.96;63.20;101812.53;5076464;28;20051;-63
2021/06/12 00:25:31;;;;;;;0.00;0.00;;;;;;;21.93;63.54;101804.91;5074833;28;20044;-63
2021/06/12 00:27:58;;;;;;;0.10;0.10;;;;;;;21.88;63.19;101806.41;5077571;28;20024;-63
2021/06/12 00:30:25;;;;;;;0.00;0.00;;;;;;;21.91;63.22;101808.75;5077560;28;20070;-63
2021/06/12 00:32:51;;;;;;;0.05;0.05;;;;;;;21.88;63.40;101809.06;5077209;28;20037;-63
2021/06/12 00:35:16;;;;;;;0.00;0.00;;;;;;;21.89;63.48;101810.72;5074852;28;20039;-63
2021/06/12 00:37:42;;;;;;;0.00;0.00;;;;;;;21.89;63.25;101816.84;5071475;28;20046;-63
2021/06/12 00:40:10;;;;;;;0.00;0.00;;;;;;;21.89;63.39;101816.00;5073409;28;20393;-63
2021/06/12 00:42:40;;;;;;;0.00;0.00;;;;;;;21.90;63.41;101812.34;5075543;28;20538;-63
2021/06/12 00:45:07;;;;;;;0.00;0.00;;;;;;;21.88;63.58;101801.94;5073439;28;20097;-63
2021/06/12 00:47:32;;;;;;;0.00;0.00;;;;;;;21.85;63.72;101798.78;5073319;28;20093;-63
2021/06/12 00:49:58;;;;;;;0.10;0.10;;;;;;;21.82;63.66;101805.28;5078567;28;20036;-63
2021/06/12 00:52:23;;;;;;;0.00;0.00;;;;;;;21.82;63.46;101809.75;5079171;28;20044;-63
2021/06/12 00:54:49;;;;;;;0.00;0.00;;;;;;;21.80;63.59;101812.56;5080762;28;20032;-63
2021/06/12 00:57:15;;;;;;;0.00;0.00;;;;;;;21.81;63.47;101816.03;5076596;28;20127;-63
2021/06/12 00:59:41;;;;;;;0.00;0.00;;;;;;;21.83;63.30;101806.09;5078738;28;20225;-63
2021/06/12 01:02:06;;;;;;;0.03;0.03;;;;;;;21.83;63.10;101806.09;5082571;28;20041;-63
2021/06/12 01:04:32;;;;;;;0.00;0.00;;;;;;;21.83;63.01;101806.91;5077111;28;20287;-63
2021/06/12 01:06:57;;;;;;;0.00;0.00;;;;;;;21.83;63.18;101808.75;5080946;28;20048;-63
2021/06/12 01:09:23;;;;;;;0.00;0.00;;;;;;;21.83;62.99;101798.13;5079164;28;20036;-63
2021/06/12 01:12:07;;;;;;;0.00;0.00;;;;;;;21.82;63.31;101791.19;5076946;28;20040;-63
2021/06/12 01:14:38;;;;;;;0.08;0.08;;;;;;;21.83;63.37;101793.66;5082155;28;20739;-63
2021/06/12 01:17:15;;;;;;;0.00;0.00;;;;;;;21.82;63.34;101799.13;5078733;28;20028;-63
2021/06/12 01:19:59;;;;;;;0.00;0.00;;;;;;;21.81;63.27;101800.13;5079173;28;20036;-63
2021/06/12 01:22:33;;;;;;;0.10;0.10;;;;;;;21.77;63.32;101794.34;5082524;28;20040;-63
2021/06/12 01:25:06;;;;;;;0.00;0.00;;;;;;;21.76;63.34;101786.56;5085557;28;20044;-63
2021/06/12 01:28:08;;;;;;;0.00;0.00;;;;;;;21.77;63.45;101791.69;5087151;28;20043;-63
2021/06/12 01:30:35;;;;;;;0.00;0.00;;;;;;;21.79;63.20;101791.53;5075249;28;20146;-63
2021/06/12 01:33:05;;;;;;;0.10;0.10;;;;;;;21.78;63.06;101785.41;5078291;28;20765;-63
2021/06/12 01:35:38;;;;;;;0.00;0.00;;;;;;;21.79;63.11;101788.88;5078326;28;20048;-63
2021/06/12 01:38:06;;;;;;;0.10;0.10;;;;;;;21.79;62.88;101796.81;5081297;28;20038;-63
2021/06/12 01:40:36;;;;;;;0.10;0.10;;;;;;;21.68;63.17;101780.28;5079679;28;20039;-63
2021/06/12 01:43:04;;;;;;;0.08;0.08;;;;;;;21.76;63.53;101789.22;5081233;28;20036;-63
2021/06/12 01:45:30;;;;;;;0.00;0.00;;;;;;;21.75;63.28;101782.25;5078501;28;20040;-63
2021/06/12 01:47:57;;;;;;;0.00;0.00;;;;;;;21.75;62.85;101777.78;5078709;28;20032;-63
2021/06/12 01:50:24;;;;;;;0.00;0.00;;;;;;;21.75;63.45;101769.00;5079647;28;20118;-63
2021/06/12 01:52:51;;;;;;;0.00;0.00;;;;;;;21.75;63.22;101776.97;5077921;28;20067;-63
2021/06/12 01:55:22;;;;;;;0.10;0.10;;;;;;;21.75;63.22;101771.66;5076658;28;20052;-63
2021/06/12 01:57:48;;;;;;;0.00;0.00;;;;;;;21.74;63.27;101765.53;5077425;28;20043;-63
2021/06/12 02:00:14;;;;;;;0.00;0.00;;;;;;;21.71;63.12;101764.03;5078276;28;20060;-63
2021/06/12 02:02:42;;;;;;;0.00;0.00;;;;;;;21.72;63.18;101759.53;5077721;28;20051;-63
2021/06/12 02:05:23;;;;;;;0.08;0.08;;;;;;;21.72;63.34;101762.19;5074997;28;20046;-63
2021/06/12 02:07:50;;;;;;;0.00;0.00;;;;;;;21.75;63.10;101775.13;5076203;28;20111;-63
2021/06/12 02:10:22;;;;;;;0.10;0.10;;;;;;;21.74;63.19;101764.72;5079396;28;20120;-63
2021/06/12 02:12:50;;;;;;;0.10;0.10;;;;;;;21.71;63.28;101758.72;5075999;28;20037;-63
2021/06/12 02:15:16;;;;;;;0.10;0.10;;;;;;;21.59;63.41;101744.19;5077198;28;20114;-63
2021/06/12 02:17:42;;;;;;;0.10;0.10;;;;;;;21.69;63.69;101758.06;5077389;28;20032;-63
2021/06/12 02:20:10;;;;;;;0.05;0.05;;;;;;;21.65;63.69;101746.16;5075442;28;20204;-63
2021/06/12 02:22:46;;;;;;;0.00;0.00;;;;;;;21.63;63.41;101742.03;5076079;28;20047;-63
2021/06/12 02:25:13;;;;;;;0.05;0.05;;;;;;;21.68;63.64;101747.63;5077170;28;20032;-63
2021/06/12 02:28:01;;;;;;;0.00;0.00;;;;;;;21.66;63.45;101737.19;5076397;28;20071;-63
2021/06/12 02:30:30;;;;;;;0.00;0.00;;;;;;;21.67;63.62;101743.31;5077780;28;20032;-63
2021/06/12 02:33:00;;;;;;;0.00;0.00;;;;;;;21.65;63.55;101738.19;5072922;28;20062;-63
2021/06/12 02:35:26;;;;;;;0.00;0.00;;;;;;;21.66;63.71;101739.03;5077612;28;20035;-63
2021/06/12 02:37:53;;;;;;;0.00;0.00;;;;;;;21.65;63.49;101743.50;5076433;28;20040;-63
2021/06/12 02:40:19;;;;;;;0.10;0.10;;;;;;;21.62;63.68;101727.13;5076440;28;20070;-63
2021/06/12 02:42:44;;;;;;;0.00;0.00;;;;;;;21.64;63.64;101731.25;5075863;28;20477;-63
2021/06/12 02:45:11;;;;;;;0.00;0.00;;;;;;;21.65;63.47;101729.41;5076649;28;20036;-63
2021/06/12 02:47:46;;;;;;;0.00;0.00;;;;;;;21.63;63.43;101731.41;5076497;28;20056;-63
2021/06/12 02:50:13;;;;;;;0.00;0.00;;;;;;;21.63;63.72;101744.66;5078256;28;20028;-63
2021/06/12 02:52:41;;;;;;;0.03;0.03;;;;;;;21.62;63.67;101743.84;5076911;28;20598;-63
2021/06/12 02:55:10;;;;;;;0.10;0.10;;;;;;;21.60;63.24;101737.88;5091153;28;20076;-63
2021/06/12 02:57:41;;;;;;;0.00;0.00;;;;;;;21.61;63.48;101736.06;5075759;28;20449;-63
2021/06/12 03:00:08;;;;;;;0.10;0.10;;;;;;;21.58;63.50;101731.94;5073823;28;20555;-63
2021/06/12 03:02:38;;;;;;;0.00;0.00;;;;;;;21.61;63.45;101733.41;5076582;28;20270;-63
2021/06/12 03:05:06;;;;;;;0.00;0.00;;;;;;;21.63;63.77;101731.41;5074646;28;20035;-63
2021/06/12 03:07:34;;;;;;;0.00;0.00;;;;;;;21.63;63.56;101728.78;5076860;28;20043;-63
2021/06/12 03:09:59;;;;;;;0.10;0.10;;;;;;;21.61;63.44;101731.59;5074602;28;20618;-63
2021/06/12 03:12:27;;;;;;;0.00;0.00;;;;;;;21.60;63.56;101732.59;5078711;28;20048;-63
2021/06/12 03:14:56;;;;;;;0.00;0.00;;;;;;;21.61;63.83;101736.91;5075384;28;20048;-63
2021/06/12 03:17:22;;;;;;;0.00;0.00;;;;;;;21.60;63.95;101726.47;5073671;28;20557;-63
2021/06/12 03:19:49;;;;;;;0.00;0.00;;;;;;;21.58;63.71;101739.06;5073994;28;20032;-63
2021/06/12 03:22:15;;;;;;;0.00;0.00;;;;;;;21.58;63.85;101736.41;5076349;28;20126;-63
2021/06/12 03:24:41;;;;;;;0.00;0.00;;;;;;;21.58;63.97;101733.75;5075017;28;20031;-63
2021/06/12 03:27:08;;;;;;;0.00;0.00;;;;;;;21.57;63.75;101738.22;5077469;28;20040;-63
2021/06/12 03:29:34;;;;;;;0.05;0.05;;;;;;;21.53;63.93;101730.75;5078824;28;20032;-63
2021/06/12 03:32:00;;;;;;;0.00;0.00;;;;;;;21.52;63.90;101732.59;5074834;28;20475;-63
2021/06/12 03:34:27;;;;;;;0.00;0.00;;;;;;;21.54;64.12;101737.72;5078697;28;20069;-63
2021/06/12 03:36:54;;;;;;;0.00;0.00;;;;;;;21.55;63.79;101747.34;5076768;28;20035;-63
2021/06/12 03:39:20;;;;;;;0.03;0.03;;;;;;;21.53;63.82;101742.19;5076243;28;20098;-63
2021/06/12 03:41:46;;;;;;;0.00;0.00;;;;;;;21.51;63.72;101749.50;5075185;28;20036;-63
2021/06/12 03:44:13;;;;;;;0.10;0.10;;;;;;;21.55;63.77;101757.94;5075708;28;20055;-63
2021/06/12 03:46:41;;;;;;;0.00;0.00;;;;;;;21.53;63.68;101750.16;5076991;28;20136;-63
2021/06/12 03:49:07;;;;;;;0.00;0.00;;;;;;;21.53;63.48;101744.00;5074363;28;20055;-63
2021/06/12 03:51:32;;;;;;;0.00;0.00;;;;;;;21.54;63.50;101735.91;5076155;28;20399;-63
2021/06/12 03:53:58;;;;;;;0.00;0.00;;;;;;;21.52;63.57;101732.59;5073797;28;20067;-63
2021/06/12 03:56:31;;;;;;;0.00;0.00;;;;;;;21.55;63.84;101728.81;5075323;28;20031;-63
2021/06/12 03:58:57;;;;;;;0.10;0.10;;;;;;;21.54;63.66;101727.94;5075147;28;20366;-63
2021/06/12 04:01:23;;;;;;;0.08;0.08;;;;;;;21.54;63.53;101745.66;5068993;28;20047;-63
2021/06/12 04:03:48;;;;;;;0.10;0.10;;;;;;;21.54;63.28;101748.31;5076822;28;21769;-63
2021/06/12 04:06:14;;;;;;;0.00;0.00;;;;;;;21.52;63.43;101751.13;5076230;28;20816;-63
2021/06/12 04:08:39;;;;;;;0.00;0.00;;;;;;;21.52;63.77;101759.09;5075491;28;20115;-63
2021/06/12 04:11:06;;;;;;;0.00;0.00;;;;;;;21.54;63.35;101772.16;5073794;28;20032;-63
2021/06/12 04:13:32;;;;;;;0.00;0.00;;;;;;;21.55;63.54;101768.56;5078789;28;20059;-63
2021/06/12 04:15:57;;;;;;;0.00;0.00;;;;;;;21.54;63.44;101758.91;5075828;28;20490;-63
2021/06/12 04:18:23;;;;;;;0.00;0.00;;;;;;;21.56;63.32;101770.22;5074723;28;20039;-63
2021/06/12 04:20:49;;;;;;;0.00;0.00;;;;;;;21.58;63.39;101774.34;5072063;28;20567;-63
2021/06/12 04:23:15;;;;;;;0.00;0.00;;;;;;;21.58;63.61;101771.69;5077672;28;20081;-63
2021/06/12 04:25:40;;;;;;;0.03;0.03;;;;;;;21.61;63.46;101759.91;5086253;28;20132;-63
2021/06/12 04:28:06;;;;;;;0.00;0.00;;;;;;;21.54;63.07;101743.03;5082786;28;20134;-63
2021/06/12 04:30:32;;;;;;;0.00;0.00;;;;;;;21.57;63.31;101754.13;5075952;28;20127;-63
2021/06/12 04:32:59;;;;;;;0.00;0.00;;;;;;;21.61;63.01;101749.31;5080326;28;20427;-63
2021/06/12 04:35:27;;;;;;;0.00;0.00;;;;;;;21.61;63.00;101744.84;5079063;28;20139;-63
2021/06/12 04:37:53;;;;;;;0.00;0.00;;;;;;;21.66;63.17;101762.88;5078136;28;20090;-63
2021/06/12 04:40:19;;;;;;;0.00;0.00;;;;;;;21.67;62.87;101757.41;5078765;28;20068;-63
2021/06/12 04:42:44;;;;;;;0.10;0.10;;;;;;;21.69;62.87;101760.72;5079393;28;20512;-63
2021/06/12 04:45:10;;;;;;;0.00;0.00;;;;;;;21.74;62.99;101770.00;5078008;28;20051;-63
2021/06/12 04:47:36;;;;;;;0.00;0.00;;;;;;;21.70;62.82;101758.88;5080589;28;20051;-63
2021/06/12 04:50:05;;;;;;;0.10;0.10;;;;;;;21.73;62.67;101765.69;5079060;28;20036;-63
2021/06/12 04:52:31;;;;;;;0.10;0.10;;;;;;;21.74;62.68;101773.47;5078797;28;20085;-63
2021/06/12 04:54:56;;;;;;;0.00;0.00;;;;;;;21.75;62.54;101776.97;5076946;28;20052;-63
2021/06/12 04:57:21;;;;;;;0.00;0.00;;;;;;;21.73;62.61;101765.69;5078176;28;20031;-63
2021/06/12 04:59:47;;;;;;;0.05;0.05;;;;;;;21.74;62.13;101772.66;5077805;28;20560;-63
2021/06/12 05:02:15;;;;;;;0.00;0.00;;;;;;;21.75;62.38;101769.84;5076738;28;20036;-62
2021/06/12 05:04:40;;;;;;;0.10;0.10;;;;;;;21.75;62.44;101767.19;5077814;28;20410;-63
2021/06/12 05:07:06;;;;;;;0.00;0.00;;;;;;;21.79;62.33;101778.28;5079249;28;20032;-63
2021/06/12 05:09:31;;;;;;;0.05;0.05;;;;;;;21.75;62.49;101772.50;5077718;28;20751;-63
2021/06/12 05:11:58;;;;;;;0.00;0.00;;;;;;;21.73;62.55;101774.47;5081121;28;20109;-63
2021/06/12 05:14:24;;;;;;;0.10;0.10;;;;;;;21.79;62.43;101781.75;5076846;28;20041;-63
2021/06/12 05:16:50;;;;;;;0.00;0.00;;;;;;;21.78;62.05;101795.19;5079314;28;20125;-63
2021/06/12 05:19:15;;;;;;;0.00;0.00;;;;;;;21.74;62.24;101778.78;5076819;28;20035;-64
2021/06/12 05:21:44;;;;;;;0.00;0.00;;;;;;;21.76;62.12;101783.91;5079579;28;20477;-63
2021/06/12 05:24:11;;;;;;;0.08;0.08;;;;;;;21.76;62.25;101786.56;5077218;28;20034;-63
2021/06/12 05:26:36;;;;;;;0.00;0.00;;;;;;;21.76;62.19;101787.41;5075004;28;20032;-63
2021/06/12 05:29:02;;;;;;;0.00;0.00;;;;;;;21.80;61.23;101790.53;5077670;28;20046;-63
2021/06/12 05:31:28;;;;;;;0.00;0.00;;;;;;;21.81;62.08;101784.22;5080603;28;20028;-63
2021/06/12 05:33:53;;;;;;;0.03;0.03;;;;;;;21.83;61.63;101788.34;5075520;28;20496;-63
2021/06/12 05:36:19;;;;;;;0.00;0.00;;;;;;;21.84;61.69;101789.19;5076727;28;20123;-63
2021/06/12 05:38:44;;;;;;;0.00;0.00;;;;;;;21.86;61.60;101785.38;5076891;28;20042;-63
2021/06/12 05:41:10;;;;;;;0.00;0.00;;;;;;;21.87;61.58;101789.66;5077257;28;20040;-63
2021/06/12 05:43:35;;;;;;;0.00;0.00;;;;;;;21.89;61.56;101786.84;5080676;28;20032;-63
2021/06/12 05:46:02;;;;;;;0.10;0.10;;;;;;;21.91;61.63;101801.63;5077630;28;20025;-63
2021/06/12 05:48:28;;;;;;;0.00;0.00;;;;;;;21.93;61.60;101809.41;5077496;28;20375;-62
2021/06/12 05:50:53;;;;;;;0.05;0.05;;;;;;;21.91;61.09;101801.63;5071444;28;20047;-63
2021/06/12 05:53:19;;;;;;;0.00;0.00;;;;;;;21.93;61.66;101804.09;5073193;28;20398;-63
2021/06/12 05:55:44;;;;;;;0.10;0.10;;;;;;;21.94;61.04;101803.09;5078875;28;20686;-63
2021/06/12 05:58:10;;;;;;;0.10;0.10;;;;;;;21.96;61.04;101806.41;5073185;28;20043;-63
2021/06/12 06:00:36;;;;;;;0.00;0.00;;;;;;;21.98;61.38;101810.53;5077995;28;20580;-63
2021/06/12 06:03:02;;;;;;;0.00;0.00;;;;;;;21.96;61.23;101809.88;5064134;28;20036;-63
2021/06/12 06:05:28;;;;;;;0.00;0.00;;;;;;;21.94;60.92;101801.28;5085768;28;20097;-63
2021/06/12 06:07:54;;;;;;;0.03;0.03;;;;;;;21.99;61.32;101806.06;5078455;28;20036;-63
2021/06/12 06:10:19;;;;;;;0.00;0.00;;;;;;;22.00;61.20;101807.72;5078591;28;20505;-63
2021/06/12 06:12:46;;;;;;;0.00;0.00;;;;;;;21.96;60.80;101804.56;5075864;28;20032;-63
2021/06/12 06:15:12;;;;;;;0.05;0.05;;;;;;;22.02;60.84;101813.66;5087088;28;20042;-62
2021/06/12 06:17:42;;;;;;;0.10;0.10;;;;;;;22.01;61.14;101812.00;5087810;28;20047;-62
2021/06/12 06:20:09;;;;;;;0.00;0.00;;;;;;;22.00;60.74;101813.84;5083153;28;20031;-62
2021/06/12 06:22:35;;;;;;;0.00;0.00;;;;;;;22.01;60.93;101819.97;5077118;28;20028;-62
2021/06/12 06:25:02;;;;;;;0.10;0.10;;;;;;;22.01;60.90;101820.78;5081589;28;20031;-63
2021/06/12 06:27:27;;;;;;;0.00;0.00;;;;;;;22.00;61.33;101826.28;5073621;28;20183;-63
2021/06/12 06:29:52;;;;;;;0.00;0.00;;;;;;;22.02;60.76;101825.09;5074635;28;20864;-63
2021/06/12 06:32:18;;;;;;;0.05;0.05;;;;;;;22.05;60.99;101825.78;5075039;28;20067;-62
2021/06/12 06:34:44;;;;;;;0.00;0.00;;;;;;;22.05;60.91;101815.19;5083958;28;20130;-63
2021/06/12 06:37:10;;;;;;;0.00;0.00;;;;;;;22.03;60.96;101823.28;5077504;28;20501;-63
2021/06/12 06:39:35;;;;;;;0.00;0.00;;;;;;;22.02;60.53;101806.53;5075043;28;20147;-63
2021/06/12 06:42:02;;;;;;;0.10;0.10;;;;;;;22.07;60.91;101814.00;5081071;28;20062;-63
2021/06/12 06:44:28;;;;;;;0.00;0.00;;;;;;;22.08;60.60;101818.31;5075515;28;20040;-63
2021/06/12 06:46:54;;;;;;;0.00;0.00;;;;;;;22.06;61.00;101815.00;5077702;28;20036;-63
2021/06/12 06:49:20;;;;;;;0.00;0.00;;;;;;;22.03;60.82;101821.44;5075585;28;20024;-63
2021/06/12 06:51:45;;;;;;;0.00;0.00;;;;;;;22.05;60.89;101839.88;5080538;28;20439;-63
2021/06/12 06:54:11;;;;;;;0.00;0.00;;;;;;;22.02;60.71;101835.72;5076467;28;20036;-63
2021/06/12 06:56:37;;;;;;;0.00;0.00;;;;;;;22.02;60.68;101835.72;5075201;28;20115;-63
2021/06/12 06:59:02;;;;;;;0.10;0.10;;;;;;;22.06;60.62;101853.97;5075681;28;20170;-63
2021/06/12 07:01:29;;;;;;;0.00;0.00;;;;;;;22.05;60.63;101847.84;5073279;28;20076;-63
2021/06/12 07:03:54;;;;;;;0.00;0.00;;;;;;;22.05;60.33;101847.00;5079076;28;20113;-63
2021/06/12 07:06:20;;;;;;;0.00;0.00;;;;;;;22.07;60.25;101843.19;5078403;28;20489;-63
2021/06/12 07:08:45;;;;;;;0.05;0.05;;;;;;;22.09;60.64;101841.22;5078478;28;20502;-62
2021/06/12 07:11:11;;;;;;;0.05;0.05;;;;;;;22.12;60.25;101840.03;5077206;28;20036;-62
2021/06/12 07:13:36;;;;;;;0.00;0.00;;;;;;;22.11;60.36;101838.38;5079823;28;20044;-63
2021/06/12 07:16:02;;;;;;;0.10;0.10;;;;;;;22.14;60.39;101836.22;5075474;28;20075;-63
2021/06/12 07:18:28;;;;;;;0.00;0.00;;;;;;;22.16;60.31;101834.22;5075426;28;20115;-63
2021/06/12 07:20:53;;;;;;;0.00;0.00;;;;;;;22.16;59.99;101846.66;5076907;28;20123;-63
2021/06/12 07:23:19;;;;;;;0.10;0.10;;;;;;;22.18;59.87;101840.19;5075763;28;20380;-63
2021/06/12 07:25:45;;;;;;;0.08;0.08;;;;;;;22.20;60.08;101851.44;5078676;28;20040;-63
2021/06/12 07:28:11;;;;;;;0.00;0.00;;;;;;;22.21;60.17;101854.91;5083677;28;20097;-63
2021/06/12 07:30:41;;;;;;;0.00;0.00;;;;;;;22.22;59.76;101860.06;5081188;28;20123;-63
2021/06/12 07:33:08;;;;;;;0.00;0.00;;;;;;;22.21;59.65;101871.66;5079570;28;20040;-63
2021/06/12 07:35:34;;;;;;;0.00;0.00;;;;;;;22.22;59.62;101873.31;5074480;28;20033;-62
2021/06/12 07:38:00;;;;;;;0.00;0.00;;;;;;;22.24;59.76;101873.97;5079660;28;20040;-63
2021/06/12 07:40:26;;;;;;;0.00;0.00;;;;;;;22.19;59.75;101864.88;5077120;28;20105;-63
2021/06/12 07:42:51;;;;;;;0.00;0.00;;;;;;;22.26;59.45;101876.44;5076415;28;20186;-63
2021/06/12 07:45:17;;;;;;;0.00;0.00;;;;;;;22.23;56.82;101872.31;5074933;28;20044;-63
2021/06/12 07:47:42;;;;;;;0.03;0.03;;;;;;;22.23;57.34;101874.97;5075989;28;20032;-63
2021/06/12 07:50:08;;;;;;;0.10;0.10;;;;;;;22.27;56.57;101868.34;5073195;28;20033;-63
2021/06/12 07:52:34;;;;;;;0.00;0.00;;;;;;;22.24;57.38;101871.31;5078342;28;20476;-64
2021/06/12 07:54:59;;;;;;;0.00;0.00;;;;;;;22.13;54.55;101871.69;5075223;28;20690;-63
2021/06/12 07:57:25;;;;;;;0.10;0.10;;;;;;;22.08;55.64;101878.50;5070195;28;20047;-65
2021/06/12 07:59:50;;;;;;;0.00;0.00;;;;;;;22.03;52.67;101877.16;5078400;28;20043;-64
2021/06/12 08:02:16;;;;;;;0.00;0.00;;;;;;;21.95;52.44;101879.00;5077115;28;20135;-64
2021/06/12 08:04:41;;;;;;;0.00;0.00;;;;;;;21.91;53.68;101883.00;5074191;28;20745;-63
2021/06/12 08:07:07;;;;;;;0.00;0.00;;;;;;;21.91;53.43;101889.13;5071832;28;20685;-62
2021/06/12 08:09:34;;;;;;;0.10;0.10;;;;;;;21.91;53.31;101883.81;5076914;28;20059;-64
2021/06/12 08:11:59;;;;;;;0.00;0.00;;;;;;;21.95;53.81;101881.66;5077389;28;20089;-64
2021/06/12 08:14:25;;;;;;;0.00;0.00;;;;;;;21.94;52.80;101886.13;5081575;28;20036;-64
2021/06/12 08:16:50;;;;;;;0.00;0.00;;;;;;;22.03;52.23;101885.09;5071099;28;20398;-63
2021/06/12 08:19:16;;;;;;;0.08;0.08;;;;;;;21.96;52.82;101883.31;5066901;28;20060;-64
2021/06/12 08:21:43;;;;;;;0.08;0.08;;;;;;;21.86;53.24;101888.78;5075246;28;20412;-64
2021/06/12 08:24:10;;;;;;;0.10;0.10;;;;;;;21.82;51.87;101890.13;5079108;28;20043;-64
2021/06/12 08:26:35;;;;;;;0.10;0.10;;;;;;;21.80;51.80;101881.50;5080086;28;20142;-64
2021/06/12 08:29:01;;;;;;;0.00;0.00;;;;;;;21.84;52.26;101895.25;5078703;28;20029;-64
2021/06/12 08:31:26;;;;;;;0.00;0.00;;;;;;;21.88;53.47;101888.59;5079050;28;20036;-63
2021/06/12 08:33:52;;;;;;;0.10;0.10;;;;;;;21.87;53.20;101881.66;5079037;28;20036;-63
2021/06/12 08:36:18;;;;;;;0.00;0.00;;;;;;;21.92;52.29;101898.72;5079237;28;20043;-63
2021/06/12 08:38:43;;;;;;;0.00;0.00;;;;;;;21.74;51.57;101876.88;5073480;28;20500;-62
2021/06/12 08:41:10;;;;;;;0.00;0.00;;;;;;;21.71;51.91;101896.56;5072391;28;20063;-62
2021/06/12 08:43:35;;;;;;;0.00;0.00;;;;;;;21.68;53.63;101901.38;5078953;28;20024;-62
2021/06/12 08:46:01;;;;;;;0.03;0.03;;;;;;;21.82;51.96;101915.81;5080509;28;20044;-63
2021/06/12 08:48:28;;;;;;;0.10;0.10;;;;;;;21.81;52.22;101917.63;5082604;28;20028;-63
2021/06/12 08:50:54;;;;;;;0.08;0.08;;;;;;;21.86;51.84;101914.47;5078741;28;20050;-63
2021/06/12 08:53:20;;;;;;;0.03;0.03;;;;;;;21.79;51.26;101918.78;5077209;28;20032;-64
2021/06/12 08:55:46;;;;;;;0.10;0.10;;;;;;;21.69;51.10;101927.72;5076209;28;20032;-64
2021/06/12 08:58:13;;;;;;;0.10;0.10;;;;;;;21.62;51.07;101932.03;5081275;28;20032;-65
2021/06/12 09:00:42;;;;;;;0.15;0.10;;;;;;;21.67;51.53;101923.59;5080352;28;20044;-64
2021/06/12 09:03:09;;;;;;;0.03;0.03;;;;;;;21.80;51.97;101928.41;5079090;28;20035;-62
2021/06/12 09:05:51;;;;;;;0.00;0.00;;;;;;;21.82;51.18;101932.53;5062560;28;85309;-61
2021/06/12 09:08:28;;;;;;;0.08;0.08;;;;;;;21.71;49.91;101932.84;5082386;28;20138;-62
2021/06/12 09:10:57;;;;;;;0.00;0.00;;;;;;;21.81;51.68;101943.31;5075671;28;20040;-58
2021/06/12 09:13:35;;;;;;;0.03;0.03;;;;;;;21.73;52.42;101944.16;5082323;28;20029;-60
2021/06/12 09:16:02;;;;;;;0.00;0.00;;;;;;;21.68;52.10;101957.88;5083053;28;20038;-58
2021/06/12 09:18:40;;;;;;;0.00;0.00;;;;;;;21.81;52.26;101964.53;5080210;28;20516;-59
2021/06/12 09:21:07;;;;;;;0.00;0.00;;;;;;;22.00;51.69;101972.97;5079921;28;20040;-60
2021/06/12 09:23:42;;;;;;;0.00;0.00;;;;;;;22.21;51.92;101961.03;5075056;28;20040;-60
2021/06/12 09:26:10;;;;;;;0.00;0.00;;;;;;;22.24;51.67;101950.09;5083414;28;20059;-60
2021/06/12 09:28:53;;;;;;;0.00;0.00;;;;;;;22.31;51.29;101951.09;5083299;28;20127;-60
2021/06/12 09:31:23;;;;;;;0.00;0.00;;;;;;;22.32;51.58;101947.44;5090997;28;20097;-60
2021/06/12 09:33:50;;;;;;;0.00;0.00;;;;;;;22.35;51.45;101938.31;5084333;28;20346;-61
2021/06/12 09:36:15;;;;;;;0.00;0.00;;;;;;;22.41;51.70;101948.22;5086878;28;20028;-59
2021/06/12 09:38:42;;;;;;;0.00;0.00;;;;;;;22.39;52.09;101947.56;5086229;28;20047;-60
2021/06/12 09:41:25;;;;;;;0.00;0.00;;;;;;;22.44;52.03;101955.84;5083224;28;20036;-60
2021/06/12 09:43:51;;;;;;;0.00;0.00;;;;;;;22.40;52.17;101954.53;5079041;28;20509;-60
2021/06/12 09:46:41;;;;;;;0.00;0.00;;;;;;;22.47;52.25;101956.38;5086107;28;20123;-60
2021/06/12 09:49:10;;;;;;;0.00;0.00;;;;;;;22.52;51.91;101955.84;5075768;28;20036;-60
2021/06/12 09:51:37;;;;;;;0.00;0.00;;;;;;;22.56;52.43;101962.47;5068344;28;20048;-60
2021/06/12 09:54:05;;;;;;;0.00;0.00;;;;;;;22.54;52.83;101954.66;5074048;28;20447;-60
2021/06/12 09:56:32;;;;;;;0.10;0.10;;;;;;;22.54;53.01;101961.81;5070040;28;20052;-60
2021/06/12 09:58:59;;;;;;;0.00;0.00;;;;;;;22.57;52.61;101972.09;5072098;28;20509;-60
2021/06/12 10:01:30;;;;;;;0.00;0.00;;;;;;;22.56;52.35;101967.78;5087411;28;20040;-61
2021/06/12 10:04:14;;;;;;;0.00;0.00;;;;;;;22.59;52.30;101975.38;5077167;28;20555;-60
2021/06/12 10:06:40;;;;;;;0.00;0.00;;;;;;;22.62;52.83;101975.03;5081320;28;20508;-60
2021/06/12 10:09:06;;;;;;;0.00;0.00;;;;;;;22.61;53.60;101976.03;5073160;28;20071;-60
2021/06/12 10:11:33;;;;;;;0.00;0.00;;;;;;;22.60;52.37;101980.53;5074770;28;20432;-60
2021/06/12 10:13:59;;;;;;;0.00;0.00;;;;;;;22.67;52.83;101977.22;5071509;28;20039;-60
2021/06/12 10:16:27;;;;;;;0.00;0.00;;;;;;;22.70;53.03;101969.72;5079692;28;20077;-60
2021/06/12 10:18:54;;;;;;;0.00;0.00;;;;;;;22.74;52.52;101984.31;5068986;28;20036;-60
2021/06/12 10:21:20;;;;;;;0.00;0.00;;;;;;;22.68;52.92;101970.91;5068565;28;20047;-60
2021/06/12 10:23:47;;;;;;;0.10;0.10;;;;;;;22.64;52.90;101973.06;5068306;28;20032;-61
2021/06/12 10:26:15;;;;;;;0.00;0.00;;;;;;;22.59;52.61;101967.44;5068848;28;20051;-60
2021/06/12 10:28:41;;;;;;;0.00;0.00;;;;;;;22.59;53.85;101962.94;5080200;28;20032;-60
2021/06/12 10:31:11;;;;;;;0.00;0.00;;;;;;;22.63;53.11;101974.06;5075463;28;20058;-61
2021/06/12 10:33:44;;;;;;;0.00;0.00;;;;;;;22.67;53.13;101970.06;5069302;28;20041;-61
2021/06/12 10:36:22;;;;;;;0.10;0.10;;;;;;;22.73;52.96;101980.00;5068368;28;20033;-60
2021/06/12 10:38:48;;;;;;;0.00;0.00;;;;;;;22.68;52.97;101973.56;5068784;28;20115;-61
2021/06/12 10:41:21;;;;;;;0.00;0.00;;;;;;;22.73;52.28;101977.34;5068313;28;20052;-60
2021/06/12 10:43:49;;;;;;;0.10;0.10;;;;;;;22.77;52.21;101977.81;5068768;28;20119;-60
2021/06/12 10:46:19;;;;;;;0.00;0.00;;;;;;;22.71;52.92;101974.03;5072253;28;20029;-60
2021/06/12 10:48:56;;;;;;;0.00;0.00;;;;;;;22.68;52.65;101971.72;5068649;28;20089;-60
2021/06/12 10:51:27;;;;;;;0.03;0.03;;;;;;;22.63;53.64;101971.41;5067991;28;20486;-60
2021/06/12 10:54:11;;;;;;;0.00;0.00;;;;;;;22.68;52.64;101977.03;5068056;28;20043;-60
2021/06/12 10:56:47;;;;;;;;;;;;;;;22.77;53.18;101993.75;5069607;28;20035;-60
2021/06/12 10:59:13;;;;;;;0.00;0.00;;;;;;;22.80;53.87;101993.41;5068760;28;20638;-60
2021/06/12 11:02:02;;;;;;;0.00;0.00;;;;;;;22.75;54.05;101993.09;5080063;28;20040;-60
2021/06/12 11:04:52;;;;;;;0.00;0.00;;;;;;;22.72;54.17;101996.94;5067710;28;20067;-60
2021/06/12 11:07:35;;;;;;;0.00;0.00;;;;;;;22.76;53.37;102002.72;5057045;28;20105;-60
2021/06/12 11:10:09;;;;;;;0.00;0.00;;;;;;;22.78;54.49;102006.03;5067257;28;20123;-61
2021/06/12 11:12:36;;;;;;;0.00;0.00;;;;;;;22.72;53.05;102006.72;5073367;28;20038;-61
2021/06/12 11:15:07;;;;;;;0.00;0.00;;;;;;;22.78;53.70;102014.00;5067999;28;20089;-60
2021/06/12 11:17:33;;;;;;;0.00;0.00;;;;;;;22.78;53.21;102016.66;5077050;28;20428;-61
2021/06/12 11:20:01;;;;;;;0.10;0.10;;;;;;;22.78;53.30;102011.34;5073645;28;20024;-60
2021/06/12 11:22:32;;;;;;;0.10;0.10;;;;;;;22.76;54.23;102010.69;5068285;28;20104;-60
2021/06/12 11:25:07;;;;;;;0.00;0.00;;;;;;;22.68;54.94;102016.88;5067696;28;20126;-60
2021/06/12 11:27:34;;;;;;;0.00;0.00;;;;;;;22.68;53.76;102021.34;5068048;28;20036;-60